sensor_id;sensor_type;location;lat;lon;timestamp;pressure;altitude;pressure_sealevel;temperature;humidity
64460;BME280;50828;53.756;21.140;2023-02-20T00:02:04;99559.60;;;0.52;67.48
64460;BME280;50828;53.756;21.140;2023-02-20T00:07:11;99562.71;;;0.53;67.70
64460;BME280;50828;53.756;21.140;2023-02-20T00:12:20;99560.29;;;0.51;67.95
64460;BME280;50828;53.756;21.140;2023-02-20T00:17:29;99556.83;;;0.50;68.01
64460;BME280;50828;53.756;21.140;2023-02-20T00:22:36;99554.58;;;0.50;68.41
64460;BME280;50828;53.756;21.140;2023-02-20T00:27:44;99550.93;;;0.51;68.64
64460;BME280;50828;53.756;21.140;2023-02-20T00:32:54;99550.06;;;0.52;68.48
64460;BME280;50828;53.756;21.140;2023-02-20T00:38:02;99558.38;;;0.53;68.69
64460;BME280;50828;53.756;21.140;2023-02-20T00:43:10;99555.96;;;0.51;68.96
64460;BME280;50828;53.756;21.140;2023-02-20T00:48:18;99552.49;;;0.52;69.04
64460;BME280;50828;53.756;21.140;2023-02-20T00:53:26;99552.48;;;0.52;68.84
64460;BME280;50828;53.756;21.140;2023-02-20T00:58:34;99545.73;;;0.52;69.16
64460;BME280;50828;53.756;21.140;2023-02-20T01:03:43;99535.00;;;0.51;68.99
64460;BME280;50828;53.756;21.140;2023-02-20T01:08:51;99543.66;;;0.51;69.33
64460;BME280;50828;53.756;21.140;2023-02-20T01:14:00;99546.95;;;0.50;69.33
64460;BME280;50828;53.756;21.140;2023-02-20T01:19:08;99545.06;;;0.49;69.36
64460;BME280;50828;53.756;21.140;2023-02-20T01:24:17;99543.50;;;0.49;69.58
64460;BME280;50828;53.756;21.140;2023-02-20T01:29:25;99534.32;;;0.49;69.79
64460;BME280;50828;53.756;21.140;2023-02-20T01:34:36;99538.48;;;0.47;69.91
64460;BME280;50828;53.756;21.140;2023-02-20T01:39:47;99540.73;;;0.47;70.21
64460;BME280;50828;53.756;21.140;2023-02-20T01:50:20;99532.08;;;0.47;70.63
64460;BME280;50828;53.756;21.140;2023-02-20T01:55:32;99533.81;;;0.48;70.79
64460;BME280;50828;53.756;21.140;2023-02-20T02:00:43;99529.98;;;0.50;71.10
64460;BME280;50828;53.756;21.140;2023-02-20T02:05:54;99527.70;;;0.52;71.33
64460;BME280;50828;53.756;21.140;2023-02-20T02:11:06;99514.84;;;0.56;71.25
64460;BME280;50828;53.756;21.140;2023-02-20T02:16:21;99508.23;;;0.60;71.56
64460;BME280;50828;53.756;21.140;2023-02-20T02:21:58;99510.64;;;0.62;71.51
64460;BME280;50828;53.756;21.140;2023-02-20T02:27:47;99510.63;;;0.62;71.53
64460;BME280;50828;53.756;21.140;2023-02-20T02:38:46;99500.55;;;0.67;71.91
64460;BME280;50828;53.756;21.140;2023-02-20T02:44:02;99496.71;;;0.69;71.79
64460;BME280;50828;53.756;21.140;2023-02-20T02:49:19;99497.20;;;0.71;71.59
64460;BME280;50828;53.756;21.140;2023-02-20T02:54:29;99493.89;;;0.73;71.59
64460;BME280;50828;53.756;21.140;2023-02-20T02:59:37;99483.30;;;0.74;71.71
64460;BME280;50828;53.756;21.140;2023-02-20T03:04:47;99487.80;;;0.76;72.28
64460;BME280;50828;53.756;21.140;2023-02-20T03:09:59;99492.98;;;0.78;72.24
64460;BME280;50828;53.756;21.140;2023-02-20T03:15:15;99494.70;;;0.79;72.20
64460;BME280;50828;53.756;21.140;2023-02-20T03:20:44;99486.02;;;0.80;72.54
64460;BME280;50828;53.756;21.140;2023-02-20T03:25:55;99478.38;;;0.82;72.32
64460;BME280;50828;53.756;21.140;2023-02-20T03:31:09;99478.52;;;0.83;72.24
64460;BME280;50828;53.756;21.140;2023-02-20T03:36:26;99465.51;;;0.85;72.28
64460;BME280;50828;53.756;21.140;2023-02-20T03:41:57;99466.88;;;0.87;72.73
64460;BME280;50828;53.756;21.140;2023-02-20T03:47:29;99461.65;;;0.89;72.46
64460;BME280;50828;53.756;21.140;2023-02-20T03:52:42;99459.54;;;0.92;72.76
64460;BME280;50828;53.756;21.140;2023-02-20T03:57:54;99453.25;;;0.95;72.48
64460;BME280;50828;53.756;21.140;2023-02-20T04:03:12;99443.86;;;0.99;72.57
64460;BME280;50828;53.756;21.140;2023-02-20T04:08:28;99437.09;;;0.99;72.53
64460;BME280;50828;53.756;21.140;2023-02-20T04:13:41;99438.66;;;0.99;72.67
64460;BME280;50828;53.756;21.140;2023-02-20T04:18:51;99440.72;;;1.00;72.45
64460;BME280;50828;53.756;21.140;2023-02-20T04:24:04;99435.67;;;1.01;72.58
64460;BME280;50828;53.756;21.140;2023-02-20T04:29:16;99433.21;;;1.04;72.59
64460;BME280;50828;53.756;21.140;2023-02-20T04:34:28;99423.98;;;1.06;72.12
64460;BME280;50828;53.756;21.140;2023-02-20T04:39:38;99416.00;;;1.08;72.28
64460;BME280;50828;53.756;21.140;2023-02-20T04:44:48;99410.27;;;1.08;72.14
64460;BME280;50828;53.756;21.140;2023-02-20T04:49:58;99414.80;;;1.07;71.87
64460;BME280;50828;53.756;21.140;2023-02-20T04:55:08;99415.52;;;1.05;71.77
64460;BME280;50828;53.756;21.140;2023-02-20T05:00:19;99415.74;;;1.01;71.69
64460;BME280;50828;53.756;21.140;2023-02-20T05:05:28;99414.57;;;0.96;71.76
64460;BME280;50828;53.756;21.140;2023-02-20T05:10:37;99404.39;;;0.93;71.38
64460;BME280;50828;53.756;21.140;2023-02-20T05:15:45;99392.98;;;0.89;71.37
64460;BME280;50828;53.756;21.140;2023-02-20T05:20:54;99384.53;;;0.86;71.30
64460;BME280;50828;53.756;21.140;2023-02-20T05:26:22;99379.02;;;0.83;71.47
64460;BME280;50828;53.756;21.140;2023-02-20T05:31:29;99374.88;;;0.82;71.39
64460;BME280;50828;53.756;21.140;2023-02-20T05:36:37;99364.34;;;0.79;71.25
64460;BME280;50828;53.756;21.140;2023-02-20T05:41:45;99370.95;;;0.77;71.26
64460;BME280;50828;53.756;21.140;2023-02-20T05:46:55;99370.66;;;0.73;71.13
64460;BME280;50828;53.756;21.140;2023-02-20T05:52:04;99363.08;;;0.70;71.15
64460;BME280;50828;53.756;21.140;2023-02-20T05:57:18;99368.30;;;0.67;70.94
64460;BME280;50828;53.756;21.140;2023-02-20T06:02:30;99365.23;;;0.63;71.15
64460;BME280;50828;53.756;21.140;2023-02-20T06:07:39;99351.73;;;0.61;71.23
64460;BME280;50828;53.756;21.140;2023-02-20T06:12:48;99345.31;;;0.61;71.39
64460;BME280;50828;53.756;21.140;2023-02-20T06:17:56;99350.65;;;0.64;71.27
64460;BME280;50828;53.756;21.140;2023-02-20T06:23:05;99354.61;;;0.67;71.44
64460;BME280;50828;53.756;21.140;2023-02-20T06:28:13;99343.34;;;0.68;71.42
64460;BME280;50828;53.756;21.140;2023-02-20T06:33:22;99330.82;;;0.71;71.50
64460;BME280;50828;53.756;21.140;2023-02-20T06:38:30;99332.50;;;0.74;71.35
64460;BME280;50828;53.756;21.140;2023-02-20T06:43:38;99331.07;;;0.79;71.26
64460;BME280;50828;53.756;21.140;2023-02-20T06:48:47;99331.70;;;0.82;71.42
64460;BME280;50828;53.756;21.140;2023-02-20T06:53:56;99329.92;;;0.86;71.00
64460;BME280;50828;53.756;21.140;2023-02-20T06:59:05;99319.15;;;0.89;71.24
64460;BME280;50828;53.756;21.140;2023-02-20T07:04:23;99323.06;;;0.94;71.24
64460;BME280;50828;53.756;21.140;2023-02-20T07:09:32;99319.92;;;0.96;70.96
64460;BME280;50828;53.756;21.140;2023-02-20T07:14:41;99310.86;;;0.99;70.97
64460;BME280;50828;53.756;21.140;2023-02-20T07:19:51;99299.90;;;1.01;71.16
64460;BME280;50828;53.756;21.140;2023-02-20T07:24:59;99287.20;;;1.04;70.90
64460;BME280;50828;53.756;21.140;2023-02-20T07:30:08;99280.56;;;1.07;71.07
64460;BME280;50828;53.756;21.140;2023-02-20T07:35:17;99264.91;;;1.10;70.85
64460;BME280;50828;53.756;21.140;2023-02-20T07:40:26;99260.70;;;1.14;70.92
64460;BME280;50828;53.756;21.140;2023-02-20T07:45:34;99249.52;;;1.19;71.04
64460;BME280;50828;53.756;21.140;2023-02-20T07:50:44;99244.60;;;1.23;70.78
64460;BME280;50828;53.756;21.140;2023-02-20T07:55:54;99232.25;;;1.25;70.92
64460;BME280;50828;53.756;21.140;2023-02-20T08:01:02;99220.60;;;1.27;70.83
64460;BME280;50828;53.756;21.140;2023-02-20T08:06:11;99196.11;;;1.27;70.86
64460;BME280;50828;53.756;21.140;2023-02-20T08:11:21;99175.46;;;1.28;71.30
64460;BME280;50828;53.756;21.140;2023-02-20T08:16:29;99165.59;;;1.27;71.17
64460;BME280;50828;53.756;21.140;2023-02-20T08:21:38;99150.71;;;1.26;71.56
64460;BME280;50828;53.756;21.140;2023-02-20T08:26:47;99127.17;;;1.23;71.48
64460;BME280;50828;53.756;21.140;2023-02-20T08:31:55;99089.77;;;1.19;71.91
64460;BME280;50828;53.756;21.140;2023-02-20T08:37:05;99065.55;;;1.16;71.85
64460;BME280;50828;53.756;21.140;2023-02-20T08:42:17;99053.95;;;1.15;72.11
64460;BME280;50828;53.756;21.140;2023-02-20T08:47:25;99032.66;;;1.13;72.39
64460;BME280;50828;53.756;21.140;2023-02-20T08:52:34;99007.20;;;1.10;72.39
64460;BME280;50828;53.756;21.140;2023-02-20T08:57:43;98984.14;;;1.10;72.85
64460;BME280;50828;53.756;21.140;2023-02-20T09:02:50;98963.52;;;1.10;72.75
64460;BME280;50828;53.756;21.140;2023-02-20T09:07:59;98951.05;;;1.10;72.62
64460;BME280;50828;53.756;21.140;2023-02-20T09:13:06;98938.59;;;1.08;72.79
64460;BME280;50828;53.756;21.140;2023-02-20T09:18:15;98930.79;;;1.07;72.95
64460;BME280;50828;53.756;21.140;2023-02-20T09:23:24;98913.14;;;1.06;73.08
64460;BME280;50828;53.756;21.140;2023-02-20T09:28:33;98877.63;;;1.04;73.11
64460;BME280;50828;53.756;21.140;2023-02-20T09:33:45;98842.41;;;1.05;73.68
64460;BME280;50828;53.756;21.140;2023-02-20T09:38:55;98837.73;;;1.05;73.75
64460;BME280;50828;53.756;21.140;2023-02-20T09:44:13;98827.52;;;1.04;73.66
64460;BME280;50828;53.756;21.140;2023-02-20T09:49:28;98804.82;;;1.03;73.71
64460;BME280;50828;53.756;21.140;2023-02-20T09:54:41;98786.13;;;1.02;73.41
64460;BME280;50828;53.756;21.140;2023-02-20T09:59:57;98758.78;;;1.00;73.42
64460;BME280;50828;53.756;21.140;2023-02-20T10:05:20;98738.88;;;0.99;73.81
64460;BME280;50828;53.756;21.140;2023-02-20T10:10:30;98702.17;;;0.97;73.47
64460;BME280;50828;53.756;21.140;2023-02-20T10:15:52;98679.51;;;0.95;73.74
64460;BME280;50828;53.756;21.140;2023-02-20T10:21:11;98649.23;;;0.92;73.92
64460;BME280;50828;53.756;21.140;2023-02-20T10:26:25;98633.12;;;0.91;74.15
64460;BME280;50828;53.756;21.140;2023-02-20T10:31:37;98610.08;;;0.91;74.09
64460;BME280;50828;53.756;21.140;2023-02-20T10:36:51;98578.42;;;0.88;74.20
64460;BME280;50828;53.756;21.140;2023-02-20T10:42:06;98532.38;;;0.86;74.54
64460;BME280;50828;53.756;21.140;2023-02-20T10:47:23;98487.48;;;0.86;74.32
64460;BME280;50828;53.756;21.140;2023-02-20T10:52:39;98450.38;;;0.86;74.79
64460;BME280;50828;53.756;21.140;2023-02-20T10:57:50;98451.11;;;0.85;74.99
64460;BME280;50828;53.756;21.140;2023-02-20T11:03:07;98452.70;;;0.84;74.74
64460;BME280;50828;53.756;21.140;2023-02-20T11:08:17;98452.04;;;0.83;74.85
64460;BME280;50828;53.756;21.140;2023-02-20T11:13:27;98440.30;;;0.81;75.08
64460;BME280;50828;53.756;21.140;2023-02-20T11:18:37;98414.36;;;0.79;75.28
64460;BME280;50828;53.756;21.140;2023-02-20T11:23:47;98388.93;;;0.78;75.69
64460;BME280;50828;53.756;21.140;2023-02-20T11:29:03;98410.41;;;0.78;75.65
64460;BME280;50828;53.756;21.140;2023-02-20T11:34:18;98382.83;;;0.80;75.93
64460;BME280;50828;53.756;21.140;2023-02-20T11:39:28;98379.45;;;0.82;75.90
64460;BME280;50828;53.756;21.140;2023-02-20T11:44:36;98346.27;;;0.84;75.75
64460;BME280;50828;53.756;21.140;2023-02-20T11:49:44;98337.85;;;0.88;75.99
64460;BME280;50828;53.756;21.140;2023-02-20T11:55:11;98328.16;;;0.93;75.85
64460;BME280;50828;53.756;21.140;2023-02-20T12:00:22;98308.76;;;0.99;76.06
64460;BME280;50828;53.756;21.140;2023-02-20T12:05:40;98285.17;;;1.05;75.98
64460;BME280;50828;53.756;21.140;2023-02-20T12:10:49;98270.53;;;1.13;76.31
64460;BME280;50828;53.756;21.140;2023-02-20T12:16:12;98266.23;;;1.23;76.39
64460;BME280;50828;53.756;21.140;2023-02-20T12:21:42;98260.20;;;1.32;76.36
64460;BME280;50828;53.756;21.140;2023-02-20T12:26:57;98251.23;;;1.41;76.70
64460;BME280;50828;53.756;21.140;2023-02-20T12:32:21;98232.88;;;1.51;76.64
64460;BME280;50828;53.756;21.140;2023-02-20T12:37:45;98208.66;;;1.59;76.77
64460;BME280;50828;53.756;21.140;2023-02-20T12:43:04;98197.16;;;1.65;76.79
64460;BME280;50828;53.756;21.140;2023-02-20T12:48:26;98178.65;;;1.74;77.03
64460;BME280;50828;53.756;21.140;2023-02-20T12:53:50;98166.06;;;1.82;77.12
64460;BME280;50828;53.756;21.140;2023-02-20T12:59:08;98164.53;;;1.90;77.19
64460;BME280;50828;53.756;21.140;2023-02-20T13:04:26;98158.02;;;1.97;77.17
64460;BME280;50828;53.756;21.140;2023-02-20T13:09:38;98154.67;;;2.04;77.30
64460;BME280;50828;53.756;21.140;2023-02-20T13:15:03;98133.39;;;2.11;77.27
64460;BME280;50828;53.756;21.140;2023-02-20T13:20:19;98142.89;;;2.17;77.43
64460;BME280;50828;53.756;21.140;2023-02-20T13:25:40;98138.59;;;2.21;77.59
64460;BME280;50828;53.756;21.140;2023-02-20T13:31:07;98134.56;;;2.26;77.61
64460;BME280;50828;53.756;21.140;2023-02-20T13:36:42;98128.98;;;2.31;77.82
64460;BME280;50828;53.756;21.140;2023-02-20T13:42:00;98113.54;;;2.35;77.99
64460;BME280;50828;53.756;21.140;2023-02-20T13:47:35;98113.48;;;2.41;77.88
64460;BME280;50828;53.756;21.140;2023-02-20T13:52:46;98097.55;;;2.49;77.99
64460;BME280;50828;53.756;21.140;2023-02-20T13:58:15;98096.25;;;2.55;77.85
64460;BME280;50828;53.756;21.140;2023-02-20T14:03:25;98085.77;;;2.61;78.01
64460;BME280;50828;53.756;21.140;2023-02-20T14:08:36;98086.46;;;2.65;78.05
64460;BME280;50828;53.756;21.140;2023-02-20T14:13:48;98078.36;;;2.72;78.05
64460;BME280;50828;53.756;21.140;2023-02-20T14:19:00;98066.77;;;2.80;77.94
64460;BME280;50828;53.756;21.140;2023-02-20T14:24:19;98055.79;;;2.85;77.98
64460;BME280;50828;53.756;21.140;2023-02-20T14:29:30;98049.48;;;2.90;77.92
64460;BME280;50828;53.756;21.140;2023-02-20T14:34:51;98038.42;;;2.97;78.03
64460;BME280;50828;53.756;21.140;2023-02-20T14:40:04;98037.45;;;3.03;78.12
64460;BME280;50828;53.756;21.140;2023-02-20T14:45:21;98026.98;;;3.08;78.26
64460;BME280;50828;53.756;21.140;2023-02-20T14:50:33;98024.14;;;3.13;78.20
64460;BME280;50828;53.756;21.140;2023-02-20T14:55:43;98028.80;;;3.18;78.07
64460;BME280;50828;53.756;21.140;2023-02-20T15:00:51;98016.77;;;3.23;78.10
64460;BME280;50828;53.756;21.140;2023-02-20T15:06:03;98007.48;;;3.28;78.21
64460;BME280;50828;53.756;21.140;2023-02-20T15:11:13;98002.09;;;3.32;78.30
64460;BME280;50828;53.756;21.140;2023-02-20T15:16:25;97992.40;;;3.39;78.41
64460;BME280;50828;53.756;21.140;2023-02-20T15:21:41;97986.39;;;3.45;78.41
64460;BME280;50828;53.756;21.140;2023-02-20T15:26:50;97971.05;;;3.53;78.40
64460;BME280;50828;53.756;21.140;2023-02-20T15:31:59;97968.23;;;3.62;78.40
64460;BME280;50828;53.756;21.140;2023-02-20T15:37:18;97968.11;;;3.68;78.38
64460;BME280;50828;53.756;21.140;2023-02-20T15:42:38;97963.36;;;3.73;78.65
64460;BME280;50828;53.756;21.140;2023-02-20T15:47:46;97982.05;;;3.79;78.70
64460;BME280;50828;53.756;21.140;2023-02-20T15:52:55;97948.53;;;3.81;78.53
64460;BME280;50828;53.756;21.140;2023-02-20T15:58:14;97917.68;;;3.93;78.57
64460;BME280;50828;53.756;21.140;2023-02-20T16:03:34;97908.95;;;4.04;78.76
64460;BME280;50828;53.756;21.140;2023-02-20T16:08:58;97903.48;;;4.12;78.88
64460;BME280;50828;53.756;21.140;2023-02-20T16:14:07;97904.93;;;4.18;78.82
64460;BME280;50828;53.756;21.140;2023-02-20T16:19:18;97904.44;;;4.25;78.89
64460;BME280;50828;53.756;21.140;2023-02-20T16:24:39;97905.58;;;4.30;79.34
64460;BME280;50828;53.756;21.140;2023-02-20T16:29:49;97895.36;;;4.36;79.13
64460;BME280;50828;53.756;21.140;2023-02-20T16:34:59;97889.09;;;4.42;79.12
64460;BME280;50828;53.756;21.140;2023-02-20T16:40:10;97884.73;;;4.49;79.28
64460;BME280;50828;53.756;21.140;2023-02-20T16:45:19;97891.54;;;4.56;79.52
64460;BME280;50828;53.756;21.140;2023-02-20T16:50:29;97884.67;;;4.61;79.64
64460;BME280;50828;53.756;21.140;2023-02-20T16:55:39;97878.59;;;4.67;79.66
64460;BME280;50828;53.756;21.140;2023-02-20T17:00:49;97880.86;;;4.74;79.73
64460;BME280;50828;53.756;21.140;2023-02-20T17:06:03;97891.61;;;4.82;79.72
64460;BME280;50828;53.756;21.140;2023-02-20T17:11:14;97908.35;;;4.88;79.87
64460;BME280;50828;53.756;21.140;2023-02-20T17:16:22;97909.13;;;4.94;79.83
64460;BME280;50828;53.756;21.140;2023-02-20T17:21:38;97903.99;;;4.99;80.05
64460;BME280;50828;53.756;21.140;2023-02-20T17:26:56;97895.67;;;5.01;79.87
64460;BME280;50828;53.756;21.140;2023-02-20T17:32:04;97891.88;;;5.03;80.00
64460;BME280;50828;53.756;21.140;2023-02-20T17:37:13;97912.67;;;5.06;80.05
64460;BME280;50828;53.756;21.140;2023-02-20T17:42:22;97921.34;;;5.10;80.08
64460;BME280;50828;53.756;21.140;2023-02-20T17:47:31;97908.76;;;5.14;80.17
64460;BME280;50828;53.756;21.140;2023-02-20T17:52:40;97891.39;;;5.20;79.79
64460;BME280;50828;53.756;21.140;2023-02-20T17:57:51;97896.25;;;5.23;79.74
64460;BME280;50828;53.756;21.140;2023-02-20T18:02:59;97910.98;;;5.28;79.81
64460;BME280;50828;53.756;21.140;2023-02-20T18:08:07;97905.39;;;5.31;79.78
64460;BME280;50828;53.756;21.140;2023-02-20T18:13:16;97906.50;;;5.34;79.87
64460;BME280;50828;53.756;21.140;2023-02-20T18:18:25;97916.59;;;5.38;79.69
64460;BME280;50828;53.756;21.140;2023-02-20T18:23:33;97926.93;;;5.40;79.18
64460;BME280;50828;53.756;21.140;2023-02-20T18:28:43;97939.52;;;5.37;78.41
64460;BME280;50828;53.756;21.140;2023-02-20T18:33:54;97936.61;;;5.36;78.03
64460;BME280;50828;53.756;21.140;2023-02-20T18:39:04;97939.96;;;5.38;77.98
64460;BME280;50828;53.756;21.140;2023-02-20T18:44:13;97945.13;;;5.43;77.90
64460;BME280;50828;53.756;21.140;2023-02-20T18:49:21;97951.67;;;5.47;77.82
64460;BME280;50828;53.756;21.140;2023-02-20T18:54:30;97943.59;;;5.52;77.58
64460;BME280;50828;53.756;21.140;2023-02-20T18:59:44;97948.23;;;5.57;77.63
64460;BME280;50828;53.756;21.140;2023-02-20T19:04:53;97950.39;;;5.61;77.25
64460;BME280;50828;53.756;21.140;2023-02-20T19:10:02;97947.80;;;5.64;76.61
64460;BME280;50828;53.756;21.140;2023-02-20T19:15:11;97946.63;;;5.66;76.28
64460;BME280;50828;53.756;21.140;2023-02-20T19:20:22;97945.41;;;5.69;76.19
64460;BME280;50828;53.756;21.140;2023-02-20T19:25:34;97946.98;;;5.76;76.07
64460;BME280;50828;53.756;21.140;2023-02-20T19:30:44;97955.16;;;5.80;75.76
64460;BME280;50828;53.756;21.140;2023-02-20T19:35:53;97964.27;;;5.83;75.48
64460;BME280;50828;53.756;21.140;2023-02-20T19:41:01;97964.11;;;5.85;75.20
64460;BME280;50828;53.756;21.140;2023-02-20T19:46:16;97959.95;;;5.88;74.84
64460;BME280;50828;53.756;21.140;2023-02-20T19:51:26;97958.94;;;5.90;74.16
64460;BME280;50828;53.756;21.140;2023-02-20T19:56:35;97964.13;;;5.92;74.00
64460;BME280;50828;53.756;21.140;2023-02-20T20:01:50;97964.60;;;5.96;74.23
64460;BME280;50828;53.756;21.140;2023-02-20T20:06:58;97965.56;;;6.01;73.73
64460;BME280;50828;53.756;21.140;2023-02-20T20:12:08;97965.80;;;6.03;73.51
64460;BME280;50828;53.756;21.140;2023-02-20T20:17:36;97966.66;;;6.03;73.08
64460;BME280;50828;53.756;21.140;2023-02-20T20:22:46;97969.33;;;6.02;73.04
64460;BME280;50828;53.756;21.140;2023-02-20T20:27:54;97966.70;;;6.02;72.74
64460;BME280;50828;53.756;21.140;2023-02-20T20:33:07;97963.98;;;6.01;72.42
64460;BME280;50828;53.756;21.140;2023-02-20T20:38:16;97968.80;;;5.99;72.18
64460;BME280;50828;53.756;21.140;2023-02-20T20:43:25;97973.46;;;5.97;72.21
64460;BME280;50828;53.756;21.140;2023-02-20T20:48:33;97974.89;;;5.96;71.78
64460;BME280;50828;53.756;21.140;2023-02-20T20:53:43;97980.33;;;5.96;71.54
64460;BME280;50828;53.756;21.140;2023-02-20T20:58:51;97984.77;;;5.94;71.39
64460;BME280;50828;53.756;21.140;2023-02-20T21:04:03;97987.54;;;5.92;71.36
64460;BME280;50828;53.756;21.140;2023-02-20T21:09:12;97991.77;;;5.91;71.30
64460;BME280;50828;53.756;21.140;2023-02-20T21:14:20;97992.23;;;5.92;71.23
64460;BME280;50828;53.756;21.140;2023-02-20T21:19:27;97996.91;;;5.93;70.91
64460;BME280;50828;53.756;21.140;2023-02-20T21:24:37;97998.11;;;5.93;71.11
64460;BME280;50828;53.756;21.140;2023-02-20T21:29:45;97998.33;;;5.92;70.55
64460;BME280;50828;53.756;21.140;2023-02-20T21:34:56;97999.20;;;5.92;70.38
64460;BME280;50828;53.756;21.140;2023-02-20T21:40:04;97996.98;;;5.91;70.41
64460;BME280;50828;53.756;21.140;2023-02-20T21:45:13;97994.20;;;5.84;70.26
64460;BME280;50828;53.756;21.140;2023-02-20T21:50:21;98005.42;;;5.90;69.91
64460;BME280;50828;53.756;21.140;2023-02-20T21:55:30;98009.20;;;5.88;70.11
64460;BME280;50828;53.756;21.140;2023-02-20T22:00:38;98020.40;;;5.88;70.02
64460;BME280;50828;53.756;21.140;2023-02-20T22:05:45;98021.73;;;5.86;69.68
64460;BME280;50828;53.756;21.140;2023-02-20T22:10:53;98022.00;;;5.84;69.71
64460;BME280;50828;53.756;21.140;2023-02-20T22:16:20;98020.29;;;5.84;69.55
64460;BME280;50828;53.756;21.140;2023-02-20T22:21:46;98022.02;;;5.84;69.48
64460;BME280;50828;53.756;21.140;2023-02-20T22:27:11;98022.15;;;5.84;69.18
64460;BME280;50828;53.756;21.140;2023-02-20T22:32:38;98022.59;;;5.83;68.75
64460;BME280;50828;53.756;21.140;2023-02-20T22:38:04;98024.40;;;5.79;68.63
64460;BME280;50828;53.756;21.140;2023-02-20T22:43:29;98021.06;;;5.76;68.98
64460;BME280;50828;53.756;21.140;2023-02-20T22:48:55;98022.49;;;5.78;69.07
64460;BME280;50828;53.756;21.140;2023-02-20T22:54:24;98022.14;;;5.78;68.86
64460;BME280;50828;53.756;21.140;2023-02-20T23:00:05;98019.65;;;5.79;69.06
64460;BME280;50828;53.756;21.140;2023-02-20T23:05:31;98017.98;;;5.81;68.91
64460;BME280;50828;53.756;21.140;2023-02-20T23:10:56;98025.63;;;5.82;68.87
64460;BME280;50828;53.756;21.140;2023-02-20T23:16:24;98025.96;;;5.82;68.68
64460;BME280;50828;53.756;21.140;2023-02-20T23:21:50;98030.69;;;5.82;68.44
64460;BME280;50828;53.756;21.140;2023-02-20T23:27:16;98032.30;;;5.81;68.21
64460;BME280;50828;53.756;21.140;2023-02-20T23:32:42;98024.30;;;5.80;68.27
64460;BME280;50828;53.756;21.140;2023-02-20T23:38:09;98028.36;;;5.80;68.27
64460;BME280;50828;53.756;21.140;2023-02-20T23:43:34;98029.83;;;5.79;68.08
64460;BME280;50828;53.756;21.140;2023-02-20T23:49:01;98026.77;;;5.77;67.97
64460;BME280;50828;53.756;21.140;2023-02-20T23:54:27;98018.11;;;5.75;68.13
64460;BME280;50828;53.756;21.140;2023-02-20T23:59:54;98018.67;;;5.74;68.18
